Time;durP1;ratioP1;P1;durP2;ratioP2;P2;SDS_P1;SDS_P2;PMS_P1;PMS_P2;Temp;Humidity;BMP_temperature;BMP_pressure;BME280_temperature;BME280_humidity;BME280_pressure;Samples;Min_cycle;Max_cycle;Signal;HPM_P1;HPM_P2
2023/12/18 00:00:20;;;;;;;14.97;13.80;;;;;;;-1.41;93.20;94508.81;5072474;28;20192;-76
2023/12/18 00:02:45;;;;;;;14.33;13.33;;;;;;;-1.37;94.93;94525.47;5070323;28;21720;-76
2023/12/18 00:05:11;;;;;;;14.33;13.03;;;;;;;-1.44;94.89;94519.38;5070640;28;20249;-76
2023/12/18 00:07:36;;;;;;;13.90;12.80;;;;;;;-1.36;94.58;94527.06;5061620;28;20240;-75
2023/12/18 00:10:02;;;;;;;13.87;12.70;;;;;;;-1.34;93.78;94536.22;5072809;28;20197;-76
2023/12/18 00:12:27;;;;;;;14.13;13.03;;;;;;;-1.48;94.51;94536.84;5062703;28;20237;-76
2023/12/18 00:14:52;;;;;;;14.07;12.77;;;;;;;-1.48;93.67;94533.47;5039183;28;20242;-75
2023/12/18 00:17:18;;;;;;;14.33;13.23;;;;;;;-1.35;94.54;94529.47;5052623;28;20225;-75
2023/12/18 00:19:44;;;;;;;15.53;14.23;;;;;;;-1.59;94.84;94523.53;5037960;28;20226;-76
2023/12/18 00:22:09;;;;;;;14.77;13.47;;;;;;;-1.39;94.43;94514.59;5039224;28;20222;-76
2023/12/18 00:24:34;;;;;;;15.10;13.90;;;;;;;-1.30;94.29;94495.69;5048967;28;20178;-76
2023/12/18 00:27:00;;;;;;;15.33;14.07;;;;;;;-1.46;94.76;94506.72;5052842;28;20233;-76
2023/12/18 00:29:25;;;;;;;15.90;14.40;;;;;;;-1.44;94.86;94498.91;5052778;28;20251;-75
2023/12/18 00:31:50;;;;;;;16.80;15.47;;;;;;;-1.48;94.62;94487.38;5052376;28;20229;-76
2023/12/18 00:34:16;;;;;;;16.50;15.00;;;;;;;-1.68;95.73;94481.75;5044693;28;20194;-76
2023/12/18 00:36:42;;;;;;;15.43;14.03;;;;;;;-1.39;95.89;94486.41;5052683;28;20258;-76
2023/12/18 00:39:08;;;;;;;15.27;14.10;;;;;;;-1.24;96.49;94492.47;5075540;28;20219;-76
2023/12/18 00:41:33;;;;;;;16.40;14.93;;;;;;;-1.39;95.77;94492.34;5070717;28;20209;-76
2023/12/18 00:43:58;;;;;;;15.37;14.17;;;;;;;-1.39;95.52;94496.66;5072606;28;20749;-76
2023/12/18 00:46:25;;;;;;;14.43;13.33;;;;;;;-1.59;95.33;94469.78;5072866;28;20208;-75
2023/12/18 00:48:51;;;;;;;15.57;14.37;;;;;;;-1.52;95.72;94486.88;5072658;28;20177;-75
2023/12/18 00:51:17;;;;;;;16.10;14.57;;;;;;;-1.36;95.90;94476.66;5069718;28;20193;-75
2023/12/18 00:53:42;;;;;;;16.13;14.83;;;;;;;-1.24;95.49;94487.34;5072056;28;20201;-76
2023/12/18 00:56:08;;;;;;;15.03;13.83;;;;;;;-1.16;95.48;94492.47;5072737;28;20207;-76
2023/12/18 00:58:33;;;;;;;14.40;13.10;;;;;;;-1.25;94.67;94493.44;5059002;28;20214;-76
2023/12/18 01:00:59;;;;;;;13.93;12.93;;;;;;;-1.35;94.83;94482.59;5066820;28;20229;-76
2023/12/18 01:03:24;;;;;;;16.03;14.73;;;;;;;-1.30;94.27;94475.19;5062442;28;20217;-77
2023/12/18 01:05:49;;;;;;;14.93;13.67;;;;;;;-1.32;95.18;94488.16;5064400;28;20189;-76
2023/12/18 01:08:15;;;;;;;14.07;13.00;;;;;;;-1.25;94.64;94462.72;5043195;28;20242;-75
2023/12/18 01:10:40;;;;;;;13.13;12.23;;;;;;;-1.37;94.83;94472.47;5048135;28;20224;-76
2023/12/18 01:13:06;;;;;;;14.87;13.60;;;;;;;-1.23;96.14;94461.56;5062125;28;20225;-76
2023/12/18 01:15:31;;;;;;;13.67;12.73;;;;;;;-1.39;95.89;94445.44;5064187;28;20186;-76
2023/12/18 01:17:56;;;;;;;13.07;12.07;;;;;;;-1.21;95.25;94463.97;5046220;28;20250;-75
2023/12/18 01:20:22;;;;;;;13.40;12.40;;;;;;;-1.40;95.16;94446.41;5051681;28;20236;-75
2023/12/18 01:22:47;;;;;;;13.20;12.20;;;;;;;-1.08;95.79;94456.59;5051157;28;20294;-76
2023/12/18 01:25:13;;;;;;;13.40;12.33;;;;;;;-1.10;94.86;94468.75;5050881;28;20187;-76
2023/12/18 01:27:39;;;;;;;15.70;14.50;;;;;;;-1.17;95.40;94465.28;5044781;28;20221;-75
2023/12/18 01:30:05;;;;;;;14.53;13.33;;;;;;;-1.36;95.06;94458.72;5043167;28;20843;-75
2023/12/18 01:32:31;;;;;;;15.17;13.87;;;;;;;-1.21;94.79;94458.84;5044999;28;20236;-76
2023/12/18 01:34:57;;;;;;;16.13;14.83;;;;;;;-1.26;95.34;94451.66;5041326;28;20190;-75
2023/12/18 01:37:22;;;;;;;15.23;14.00;;;;;;;-1.24;95.27;94454.06;5059986;28;20245;-76
2023/12/18 01:39:48;;;;;;;15.40;14.07;;;;;;;-1.16;94.18;94436.09;5072673;28;20248;-75
2023/12/18 01:42:13;;;;;;;14.57;13.27;;;;;;;-1.21;93.71;94440.91;5069764;28;20217;-76
2023/12/18 01:44:38;;;;;;;15.47;14.03;;;;;;;-1.24;95.27;94431.00;5070479;28;20208;-76
2023/12/18 01:47:04;;;;;;;15.60;14.33;;;;;;;-1.07;94.43;94435.13;5070428;28;20229;-76
2023/12/18 01:49:30;;;;;;;15.37;13.90;;;;;;;-1.23;94.83;94430.06;5070728;28;20201;-75
2023/12/18 01:51:55;;;;;;;14.00;12.80;;;;;;;-1.28;95.04;94424.59;5074649;28;20272;-76
2023/12/18 01:54:22;;;;;;;14.33;13.23;;;;;;;-1.14;94.59;94422.19;5073194;28;20197;-76
2023/12/18 01:56:50;;;;;;;23.90;16.40;;;;;;;-1.28;94.43;94420.28;5060706;28;20236;-75
2023/12/18 01:59:16;;;;;;;14.83;13.43;;;;;;;-1.13;94.15;94416.09;5067233;28;20213;-75
2023/12/18 02:01:42;;;;;;;16.03;14.63;;;;;;;-1.28;94.75;94420.28;5059429;28;20225;-75
2023/12/18 02:04:08;;;;;;;13.97;12.77;;;;;;;-1.29;95.13;94426.38;5069094;28;20190;-76
2023/12/18 02:06:33;;;;;;;14.33;13.23;;;;;;;-1.25;95.10;94426.84;5057803;28;20177;-75
2023/12/18 02:08:59;;;;;;;14.50;13.27;;;;;;;-1.52;95.37;94404.13;5060245;28;20712;-76
2023/12/18 02:11:25;;;;;;;13.87;12.77;;;;;;;-1.43;96.25;94421.13;5065063;28;20182;-75
2023/12/18 02:13:51;;;;;;;14.03;12.83;;;;;;;-1.31;96.01;94430.06;5051043;28;20196;-75
2023/12/18 02:16:16;;;;;;;15.27;13.97;;;;;;;-1.28;96.00;94422.06;5050645;28;20175;-75
2023/12/18 02:18:43;;;;;;;15.10;13.83;;;;;;;-1.15;95.50;94420.56;5047238;28;20191;-75
2023/12/18 02:21:09;;;;;;;14.80;13.70;;;;;;;-1.08;95.29;94420.72;5037612;28;20240;-75
2023/12/18 02:23:34;;;;;;;14.10;13.07;;;;;;;-1.16;94.86;94416.41;5033950;28;20225;-75
2023/12/18 02:25:59;;;;;;;14.00;13.10;;;;;;;-1.23;95.42;94409.56;5049966;28;20480;-75
2023/12/18 02:28:25;;;;;;;14.87;13.60;;;;;;;-1.16;95.03;94420.72;5049087;28;20229;-75
2023/12/18 02:30:51;;;;;;;14.43;13.23;;;;;;;-1.29;95.01;94415.34;5049641;28;20199;-76
2023/12/18 02:33:16;;;;;;;14.33;13.37;;;;;;;-1.29;95.58;94411.00;5043355;28;20287;-76
2023/12/18 02:35:41;;;;;;;14.70;13.57;;;;;;;-1.18;95.05;94413.22;5038132;28;20736;-75
2023/12/18 02:38:07;;;;;;;21.03;13.03;;;;;;;-1.25;94.87;94390.97;5049460;28;20222;-75
2023/12/18 02:40:32;;;;;;;15.60;14.30;;;;;;;-1.54;95.40;94370.22;5049894;28;20182;-75
2023/12/18 02:42:57;;;;;;;13.40;12.40;;;;;;;-1.45;95.35;94376.94;5047956;28;20221;-76
2023/12/18 02:45:23;;;;;;;15.77;14.30;;;;;;;-1.20;94.66;94404.09;5061476;28;20205;-76
2023/12/18 02:47:48;;;;;;;14.93;13.90;;;;;;;-1.14;94.56;94413.69;5049538;28;20232;-75
2023/12/18 02:50:15;;;;;;;14.97;13.60;;;;;;;-1.30;94.75;94404.28;5036703;28;20193;-75
2023/12/18 02:52:40;;;;;;;16.40;15.00;;;;;;;-1.39;94.98;94378.84;5061413;28;20255;-76
2023/12/18 02:55:07;;;;;;;16.23;14.63;;;;;;;-1.42;93.75;94394.53;5070594;28;20189;-76
2023/12/18 02:57:32;;;;;;;17.40;15.60;;;;;;;-1.63;96.22;94418.06;5064887;28;20226;-76
2023/12/18 02:59:58;;;;;;;15.67;14.27;;;;;;;-1.23;96.00;94409.56;5068111;28;20235;-76
2023/12/18 03:02:23;;;;;;;18.43;16.63;;;;;;;-1.30;94.73;94419.66;5050335;28;20230;-75
2023/12/18 03:04:48;;;;;;;16.80;15.23;;;;;;;-1.27;95.37;94423.63;5049737;28;20182;-75
2023/12/18 03:07:14;;;;;;;16.73;13.93;;;;;;;-1.40;94.99;94387.50;5057732;28;20225;-74
2023/12/18 03:09:39;;;;;;;16.33;14.67;;;;;;;-1.46;93.96;94404.28;5064578;28;20209;-76
2023/12/18 03:12:05;;;;;;;17.30;15.50;;;;;;;-1.37;94.48;94413.56;5062912;28;20233;-75
2023/12/18 03:14:30;;;;;;;17.97;16.27;;;;;;;-1.45;94.69;94394.84;5053474;28;20196;-76
2023/12/18 03:16:55;;;;;;;17.27;15.70;;;;;;;-1.41;94.37;94393.56;5057207;28;20312;-76
2023/12/18 03:19:21;;;;;;;16.03;14.47;;;;;;;-1.46;94.58;94409.41;5047264;28;20215;-76
2023/12/18 03:21:46;;;;;;;16.10;14.63;;;;;;;-1.49;93.88;94407.19;5053556;28;20231;-76
2023/12/18 03:24:12;;;;;;;14.80;13.37;;;;;;;-1.39;94.18;94404.44;5058055;28;20185;-75
2023/12/18 03:26:37;;;;;;;15.23;13.80;;;;;;;-1.55;93.60;94395.03;5066729;28;20233;-76
2023/12/18 03:29:03;;;;;;;16.03;14.53;;;;;;;-1.45;94.19;94410.22;5069750;28;20189;-76
2023/12/18 03:31:28;;;;;;;14.37;13.00;;;;;;;-1.70;94.32;94366.72;5058809;28;20186;-76
2023/12/18 03:33:54;;;;;;;15.57;14.30;;;;;;;-1.55;93.87;94407.84;5065537;28;20189;-76
2023/12/18 03:36:19;;;;;;;15.00;13.70;;;;;;;-1.40;94.14;94408.00;5069545;28;20220;-75
2023/12/18 03:38:44;;;;;;;15.03;13.87;;;;;;;-1.44;94.13;94384.44;5068520;28;20181;-76
2023/12/18 03:41:10;;;;;;;14.67;13.43;;;;;;;-1.36;94.08;94383.63;5069175;28;20209;-76
2023/12/18 03:43:35;;;;;;;17.20;15.80;;;;;;;-1.39;95.44;94391.66;5050270;28;20674;-76
2023/12/18 03:46:01;;;;;;;18.10;15.07;;;;;;;-1.47;94.48;94384.78;5049761;28;20182;-76
2023/12/18 03:48:27;;;;;;;17.20;15.70;;;;;;;-1.35;94.59;94400.63;5064849;28;20225;-76
2023/12/18 03:50:52;;;;;;;20.80;17.53;;;;;;;-1.38;94.48;94388.09;5074863;28;20305;-76
2023/12/18 03:53:17;;;;;;;21.07;17.70;;;;;;;-1.45;95.12;94393.09;5055359;28;20283;-76
2023/12/18 03:55:43;;;;;;;21.07;17.30;;;;;;;-1.85;95.13;94322.25;5059914;28;20186;-76
2023/12/18 03:58:08;;;;;;;18.20;16.37;;;;;;;-1.34;94.13;94382.53;5065100;28;20217;-76
2023/12/18 04:00:34;;;;;;;20.40;18.30;;;;;;;-1.38;95.32;94395.78;5063693;28;20196;-76
2023/12/18 04:03:02;;;;;;;24.53;18.57;;;;;;;-1.27;94.46;94390.34;5055073;28;20343;-75
2023/12/18 04:05:27;;;;;;;25.50;20.27;;;;;;;-1.31;94.10;94386.50;5043881;28;20220;-76
2023/12/18 04:07:52;;;;;;;21.37;18.27;;;;;;;-1.28;93.85;94381.06;5029515;28;20211;-77
2023/12/18 04:10:18;;;;;;;24.77;19.33;;;;;;;-1.19;94.34;94403.94;5038421;28;20194;-76
2023/12/18 04:12:43;;;;;;;21.87;19.63;;;;;;;-1.24;94.28;94403.63;5042753;28;20226;-76
2023/12/18 04:15:09;;;;;;;28.40;21.40;;;;;;;-1.39;94.24;94395.00;5046236;28;20213;-76
2023/12/18 04:17:36;;;;;;;19.87;17.03;;;;;;;-1.25;94.69;94412.28;5057089;28;20281;-77
2023/12/18 04:20:01;;;;;;;14.67;13.47;;;;;;;-1.24;94.03;94407.94;5063203;28;20209;-76
2023/12/18 04:22:27;;;;;;;14.03;12.93;;;;;;;-1.26;94.09;94420.13;5050701;28;20391;-73
2023/12/18 04:24:52;;;;;;;13.93;12.60;;;;;;;-1.31;95.18;94418.06;5045829;28;20209;-72
2023/12/18 04:27:17;;;;;;;14.73;13.53;;;;;;;-1.25;95.56;94414.84;5040909;28;20234;-72
2023/12/18 04:29:43;;;;;;;14.73;13.50;;;;;;;-1.49;95.31;94362.88;5048672;28;20600;-74
2023/12/18 04:32:08;;;;;;;13.77;12.57;;;;;;;-1.09;95.18;94406.31;5047212;28;20226;-73
2023/12/18 04:34:34;;;;;;;13.40;12.47;;;;;;;-1.09;95.38;94401.97;5043777;28;20190;-73
2023/12/18 04:36:59;;;;;;;14.77;13.60;;;;;;;-1.01;95.03;94399.41;5041562;28;20226;-74
2023/12/18 04:39:25;;;;;;;14.10;13.10;;;;;;;-1.11;95.63;94403.94;5048648;28;20232;-73
2023/12/18 04:41:50;;;;;;;14.10;12.80;;;;;;;-1.20;96.07;94383.59;5050908;28;20229;-73
2023/12/18 04:44:15;;;;;;;14.60;13.40;;;;;;;-1.07;95.82;94394.94;5049274;28;20197;-75
2023/12/18 04:46:41;;;;;;;15.00;13.43;;;;;;;-1.13;95.70;94403.28;5048472;28;20237;-75
2023/12/18 04:49:07;;;;;;;15.57;14.23;;;;;;;-1.04;95.59;94411.75;5052101;28;20640;-74
2023/12/18 04:51:32;;;;;;;17.30;15.57;;;;;;;-1.00;94.81;94410.47;5047475;28;20198;-75
2023/12/18 04:53:58;;;;;;;20.07;18.00;;;;;;;-1.18;95.03;94385.03;5044838;28;20201;-76
2023/12/18 04:56:23;;;;;;;18.50;16.70;;;;;;;-0.94;94.93;94409.78;5049239;28;20186;-76
2023/12/18 04:58:49;;;;;;;17.23;15.57;;;;;;;-0.92;94.20;94407.88;5065251;28;20178;-75
2023/12/18 05:01:14;;;;;;;18.57;16.87;;;;;;;-1.04;95.36;94409.19;5070877;28;20217;-74
2023/12/18 05:03:40;;;;;;;19.97;16.93;;;;;;;-1.23;96.00;94396.75;5064981;28;20243;-74
2023/12/18 05:06:20;;;;;;;21.27;16.20;;;;;;;-1.16;96.38;94406.16;5069025;28;20205;-74
2023/12/18 05:08:47;;;;;;;18.47;15.80;;;;;;;-1.11;96.09;94413.38;5066580;28;20221;-75
2023/12/18 05:11:12;;;;;;;46.27;29.70;;;;;;;-1.18;96.77;94415.78;5069315;28;20201;-75
2023/12/18 05:13:37;;;;;;;46.43;26.03;;;;;;;-1.20;96.90;94406.66;5068260;28;20290;-75
2023/12/18 05:16:03;;;;;;;71.23;32.10;;;;;;;-1.09;96.09;94406.31;5069552;28;20280;-73
2023/12/18 05:18:29;;;;;;;79.17;37.30;;;;;;;-1.20;96.76;94402.34;5070799;28;20221;-72
2023/12/18 05:20:57;;;;;;;106.07;42.07;;;;;;;-1.24;96.80;94413.88;5061773;28;20234;-73
2023/12/18 05:23:26;;;;;;;119.63;48.80;;;;;;;-1.11;95.99;94408.25;5066767;28;20220;-73
2023/12/18 05:25:51;;;;;;;100.90;40.90;;;;;;;-0.98;95.51;94403.41;5063051;28;20171;-74
2023/12/18 05:28:16;;;;;;;44.67;24.70;;;;;;;-0.98;95.06;94401.63;5064290;28;21644;-73
2023/12/18 05:30:42;;;;;;;33.77;22.33;;;;;;;-1.05;95.17;94402.47;5067634;28;20205;-74
2023/12/18 05:33:08;;;;;;;37.67;20.00;;;;;;;-1.13;96.16;94384.53;5054046;28;20217;-81
2023/12/18 05:35:33;;;;;;;61.50;28.83;;;;;;;-1.12;97.05;94360.53;5048900;28;20335;-75
2023/12/18 05:37:58;;;;;;;63.30;30.77;;;;;;;-0.88;95.61;94388.63;5040926;28;20236;-75
2023/12/18 05:40:24;;;;;;;115.83;41.13;;;;;;;-0.90;95.32;94401.59;5050275;28;20186;-75
2023/12/18 05:42:49;;;;;;;109.03;42.73;;;;;;;-0.91;95.30;94405.16;5049068;28;20228;-74
2023/12/18 05:45:15;;;;;;;95.57;34.37;;;;;;;-1.07;94.84;94389.00;5044030;28;20265;-77
2023/12/18 05:47:40;;;;;;;91.90;37.43;;;;;;;-0.97;95.45;94403.25;5048720;28;20284;-75
2023/12/18 05:50:06;;;;;;;65.37;31.27;;;;;;;-0.92;95.17;94402.75;5047112;28;20187;-75
2023/12/18 05:52:31;;;;;;;44.30;24.13;;;;;;;-1.00;95.04;94400.22;5047069;28;20253;-75
2023/12/18 05:54:57;;;;;;;25.00;18.60;;;;;;;-0.96;95.38;94406.59;5049527;28;20887;-77
2023/12/18 05:57:22;;;;;;;14.37;13.13;;;;;;;-1.00;95.16;94384.81;5046629;28;20229;-76
2023/12/18 05:59:47;;;;;;;16.60;14.97;;;;;;;-0.96;95.20;94402.28;5047990;28;20189;-75
2023/12/18 06:02:13;;;;;;;16.03;14.73;;;;;;;-0.88;95.40;94404.00;5041703;28;20237;-76
2023/12/18 06:04:41;;;;;;;14.27;13.13;;;;;;;-1.00;95.44;94374.56;5042464;28;20186;-81
2023/12/18 06:07:07;;;;;;;16.97;15.33;;;;;;;-0.98;95.36;94398.28;5051424;28;20221;-83
2023/12/18 06:09:32;;;;;;;17.10;15.50;;;;;;;-0.89;96.38;94412.66;5056617;28;20218;-80
2023/12/18 06:11:58;;;;;;;16.57;14.90;;;;;;;-0.94;95.90;94417.47;5048792;28;20230;-80
2023/12/18 06:14:23;;;;;;;18.37;16.40;;;;;;;-0.91;95.80;94412.03;5047111;28;20224;-78
2023/12/18 06:16:48;;;;;;;18.13;16.53;;;;;;;-0.88;95.34;94419.38;5045651;28;20240;-78
2023/12/18 06:19:14;;;;;;;17.60;15.70;;;;;;;-0.83;94.86;94412.81;5035684;28;20218;-80
2023/12/18 06:21:42;;;;;;;15.53;14.33;;;;;;;-0.80;95.10;94427.06;5081571;28;20282;-82
2023/12/18 06:24:08;;;;;;;17.37;15.30;;;;;;;-0.96;95.59;94416.84;5046470;28;20193;-82
2023/12/18 06:26:33;;;;;;;17.00;15.00;;;;;;;-0.87;94.91;94426.13;5047918;28;20190;-80
2023/12/18 06:28:58;;;;;;;15.30;14.03;;;;;;;-0.76;94.03;94425.75;5050676;28;20186;-79
2023/12/18 06:31:24;;;;;;;15.97;14.83;;;;;;;-0.96;94.07;94374.06;5050466;28;20190;-82
2023/12/18 06:33:49;;;;;;;14.70;13.30;;;;;;;-0.71;93.98;94411.47;5050186;28;20178;-82
2023/12/18 06:36:19;;;;;;;14.70;13.80;;;;;;;-0.76;94.33;94407.78;5046717;28;20208;-78
2023/12/18 06:38:45;;;;;;;16.63;15.33;;;;;;;-0.70;95.17;94391.78;5043572;28;20198;-79
2023/12/18 06:41:10;;;;;;;16.43;14.70;;;;;;;-0.40;94.74;94403.78;5050657;28;20273;-77
2023/12/18 06:43:36;;;;;;;15.63;14.23;;;;;;;-0.56;95.67;94403.91;5061613;28;20218;-75
2023/12/18 06:46:01;;;;;;;15.60;14.20;;;;;;;-0.38;94.81;94407.00;5062837;28;20695;-77
2023/12/18 06:48:27;;;;;;;15.67;14.30;;;;;;;-0.38;94.19;94391.59;5042476;28;20746;-85
2023/12/18 06:50:52;;;;;;;16.63;15.07;;;;;;;-0.44;95.68;94398.22;5047705;28;20653;-77
2023/12/18 06:53:17;;;;;;;17.37;15.77;;;;;;;-0.25;94.85;94402.13;5041733;28;20215;-78
2023/12/18 06:55:43;;;;;;;16.40;15.07;;;;;;;-0.17;95.19;94399.50;5049330;28;20198;-78
2023/12/18 06:58:08;;;;;;;14.80;13.47;;;;;;;-0.25;95.27;94394.44;5065137;28;20296;-79
2023/12/18 07:00:34;;;;;;;16.67;14.97;;;;;;;-0.25;95.10;94366.19;5066336;28;20200;-77
2023/12/18 07:02:59;;;;;;;16.97;14.83;;;;;;;-0.32;96.08;94373.78;5061500;28;20221;-81
2023/12/18 07:05:26;;;;;;;18.83;16.87;;;;;;;-0.16;95.99;94386.47;5072533;28;20196;-77
2023/12/18 07:07:52;;;;;;;18.23;16.33;;;;;;;0.00;95.82;94396.66;5067205;28;20213;-77
2023/12/18 07:10:17;;;;;;;19.07;17.07;;;;;;;-0.05;94.89;94410.97;5058845;28;20213;-77
2023/12/18 07:12:42;;;;;;;26.83;21.33;;;;;;;-0.23;95.09;94426.63;5068487;28;20221;-77
2023/12/18 07:15:08;;;;;;;34.63;28.10;;;;;;;-0.14;95.09;94429.97;5057959;28;20193;-76
2023/12/18 07:17:33;;;;;;;41.27;28.90;;;;;;;-0.07;95.22;94425.75;5063647;28;20221;-75
2023/12/18 07:19:59;;;;;;;32.67;27.20;;;;;;;0.16;94.38;94416.28;5067723;28;20217;-75
2023/12/18 07:22:24;;;;;;;32.43;24.40;;;;;;;-0.20;95.16;94418.59;5052861;28;20237;-75
2023/12/18 07:24:50;;;;;;;36.03;26.23;;;;;;;0.13;94.35;94416.63;5048823;28;20197;-75
2023/12/18 07:27:15;;;;;;;29.83;24.40;;;;;;;0.03;94.36;94411.72;5058369;28;20218;-75
2023/12/18 07:29:40;;;;;;;32.20;25.70;;;;;;;-0.29;94.78;94406.78;5061869;28;20196;-74
2023/12/18 07:32:06;;;;;;;30.40;26.00;;;;;;;-0.07;95.73;94411.16;5069099;28;20236;-75
2023/12/18 07:34:31;;;;;;;31.83;24.43;;;;;;;0.20;94.74;94416.75;5065730;28;20277;-75
2023/12/18 07:36:57;;;;;;;33.07;25.67;;;;;;;0.25;94.39;94410.13;5063852;28;20237;-75
2023/12/18 07:39:22;;;;;;;28.43;24.33;;;;;;;0.20;94.72;94401.34;5067189;28;20200;-76
2023/12/18 07:41:47;;;;;;;36.70;25.80;;;;;;;-0.13;96.08;94419.53;5059497;28;20230;-75
2023/12/18 07:44:13;;;;;;;35.87;24.20;;;;;;;0.19;98.02;94417.72;5084141;28;20185;-75
2023/12/18 07:46:39;;;;;;;28.93;24.17;;;;;;;0.46;96.47;94415.41;5064692;28;20229;-75
2023/12/18 07:49:04;;;;;;;30.90;24.53;;;;;;;0.51;97.13;94408.00;5043321;28;20182;-75
2023/12/18 07:51:30;;;;;;;31.00;24.07;;;;;;;0.80;95.86;94415.75;5037674;28;20781;-75
2023/12/18 07:53:55;;;;;;;30.93;25.13;;;;;;;0.83;95.48;94379.41;5048760;28;20245;-75
2023/12/18 07:56:20;;;;;;;30.47;23.57;;;;;;;1.05;94.57;94393.97;5047068;28;20194;-75
2023/12/18 07:58:46;;;;;;;25.77;23.07;;;;;;;1.28;94.79;94404.97;5073420;28;20185;-75
2023/12/18 08:01:11;;;;;;;22.57;20.13;;;;;;;1.44;94.84;94403.97;5071202;28;20205;-72
2023/12/18 08:03:36;;;;;;;27.63;23.70;;;;;;;1.67;93.12;94401.28;5076153;28;20221;-73
2023/12/18 08:06:02;;;;;;;27.33;22.63;;;;;;;1.77;91.96;94414.66;5074620;28;20189;-73
2023/12/18 08:08:27;;;;;;;33.70;24.40;;;;;;;1.86;91.96;94413.56;5068804;28;20217;-73
2023/12/18 08:10:53;;;;;;;26.97;22.23;;;;;;;1.82;91.59;94394.31;5068995;28;20213;-73
2023/12/18 08:13:19;;;;;;;32.33;24.13;;;;;;;1.85;91.87;94399.09;5053184;28;20246;-74
2023/12/18 08:15:44;;;;;;;30.40;24.87;;;;;;;1.99;90.66;94408.56;5052918;28;20194;-73
2023/12/18 08:18:12;;;;;;;30.47;24.07;;;;;;;1.99;91.31;94413.72;5043687;28;20218;-74
2023/12/18 08:20:37;;;;;;;34.83;25.37;;;;;;;2.00;91.47;94417.88;5049420;28;20215;-74
2023/12/18 08:23:03;;;;;;;31.33;23.27;;;;;;;2.09;90.37;94415.00;5060395;28;20228;-73
2023/12/18 08:25:28;;;;;;;28.83;24.63;;;;;;;2.19;88.86;94417.28;5062782;28;20181;-73
2023/12/18 08:27:53;;;;;;;35.07;25.20;;;;;;;1.95;90.76;94415.03;5068600;28;20248;-73
2023/12/18 08:30:19;;;;;;;33.03;25.97;;;;;;;2.13;90.15;94407.72;5072791;28;20193;-74
2023/12/18 08:32:44;;;;;;;30.43;24.23;;;;;;;2.18;89.74;94403.59;5066143;28;20233;-73
2023/12/18 08:35:10;;;;;;;32.30;25.77;;;;;;;2.33;89.10;94416.44;5059873;28;20245;-74
2023/12/18 08:37:35;;;;;;;33.77;23.80;;;;;;;2.40;88.94;94418.09;5067589;28;20214;-73
2023/12/18 08:40:01;;;;;;;34.60;27.30;;;;;;;2.42;89.32;94416.13;5060274;28;20216;-73
2023/12/18 08:42:26;;;;;;;33.23;25.50;;;;;;;2.44;88.01;94418.53;5067631;28;20225;-73
2023/12/18 08:44:51;;;;;;;33.20;27.07;;;;;;;2.36;88.25;94410.91;5069227;28;20190;-73
2023/12/18 08:47:17;;;;;;;30.47;23.43;;;;;;;2.38;88.19;94409.72;5064504;28;20239;-73
2023/12/18 08:49:42;;;;;;;31.93;25.10;;;;;;;2.47;87.04;94400.09;5050597;28;20254;-73
2023/12/18 08:52:08;;;;;;;34.50;26.10;;;;;;;2.54;86.95;94424.97;5046838;28;20254;-73
2023/12/18 08:54:33;;;;;;;34.13;24.37;;;;;;;2.72;85.38;94416.78;5049426;28;20258;-73
2023/12/18 08:56:58;;;;;;;38.07;26.73;;;;;;;2.62;86.09;94416.28;5045056;28;20260;-73
2023/12/18 08:59:24;;;;;;;34.27;26.23;;;;;;;2.45;86.34;94410.59;5048791;28;20175;-73
2023/12/18 09:01:49;;;;;;;35.10;26.97;;;;;;;2.65;85.92;94416.72;5048657;28;20230;-74
2023/12/18 09:04:15;;;;;;;35.67;27.50;;;;;;;2.54;86.58;94388.88;5048768;28;20186;-74
2023/12/18 09:06:40;;;;;;;44.53;27.80;;;;;;;2.67;86.40;94411.38;5039832;28;20231;-73
2023/12/18 09:09:05;;;;;;;36.57;29.27;;;;;;;2.48;87.94;94399.13;5072557;28;20190;-74
2023/12/18 09:11:33;;;;;;;39.17;28.37;;;;;;;2.55;88.56;94389.69;5069227;28;20193;-74
2023/12/18 09:14:00;;;;;;;42.57;28.53;;;;;;;2.70;88.08;94403.28;5066867;28;20173;-74
2023/12/18 09:16:26;;;;;;;37.60;29.40;;;;;;;2.75;87.75;94391.44;5072198;28;20193;-74
2023/12/18 09:18:52;;;;;;;44.47;29.47;;;;;;;2.72;87.25;94380.69;5070919;28;20188;-74
2023/12/18 09:21:17;;;;;;;40.10;30.73;;;;;;;2.68;86.40;94392.34;5079940;28;20201;-74
2023/12/18 09:23:44;;;;;;;39.20;29.57;;;;;;;2.73;86.96;94397.75;5071083;28;20253;-73
2023/12/18 09:26:11;;;;;;;40.93;30.90;;;;;;;2.92;87.06;94391.94;5065689;28;20783;-74
2023/12/18 09:28:37;;;;;;;58.63;30.47;;;;;;;2.97;85.94;94394.75;5070484;28;20243;-75
2023/12/18 09:31:02;;;;;;;49.60;31.77;;;;;;;3.08;85.95;94383.91;5074602;28;20189;-74
2023/12/18 09:33:28;;;;;;;43.23;30.77;;;;;;;3.04;85.80;94383.47;5042805;28;20225;-73
2023/12/18 09:35:53;;;;;;;44.17;30.83;;;;;;;3.02;86.40;94377.72;5048275;28;20198;-74
2023/12/18 09:38:19;;;;;;;44.67;32.27;;;;;;;2.48;88.29;94355.31;5048174;28;20221;-74
2023/12/18 09:40:45;;;;;;;47.87;32.30;;;;;;;2.86;88.29;94361.72;5046070;28;20204;-74
2023/12/18 09:43:16;;;;;;;42.00;31.97;;;;;;;3.07;87.68;94374.56;5067160;28;20222;-74
2023/12/18 09:45:48;;;;;;;40.33;30.97;;;;;;;3.23;87.17;94366.50;5068957;28;20186;-74
2023/12/18 09:48:16;;;;;;;54.57;34.17;;;;;;;3.21;87.60;94368.47;5067804;28;20245;-74
2023/12/18 09:50:43;;;;;;;47.50;33.47;;;;;;;3.18;87.89;94341.28;5069955;28;20188;-74
2023/12/18 09:53:12;;;;;;;49.93;34.53;;;;;;;3.23;88.80;94351.84;5068510;28;20224;-74
2023/12/18 09:55:37;;;;;;;44.93;32.93;;;;;;;3.20;88.39;94346.25;5068688;28;20332;-73
2023/12/18 09:58:04;;;;;;;47.07;31.60;;;;;;;3.58;87.02;94347.41;5071551;28;20225;-73
2023/12/18 10:00:29;;;;;;;55.77;33.27;;;;;;;3.57;87.03;94348.41;5081052;28;20181;-74
2023/12/18 10:02:56;;;;;;;52.03;34.40;;;;;;;3.58;87.48;94351.78;5065377;28;20213;-73
2023/12/18 10:05:21;;;;;;;45.60;33.47;;;;;;;3.64;87.98;94340.69;5069406;28;20196;-73
2023/12/18 10:07:47;;;;;;;47.00;34.30;;;;;;;3.72;87.43;94349.03;5061787;28;20282;-74
2023/12/18 10:10:12;;;;;;;46.00;32.93;;;;;;;3.71;87.78;94347.44;5068941;28;20212;-73
2023/12/18 10:12:40;;;;;;;53.10;33.50;;;;;;;3.85;86.92;94341.34;5067046;28;20257;-74
2023/12/18 10:15:07;;;;;;;48.37;33.77;;;;;;;3.93;87.43;94343.75;5066005;28;20199;-73
2023/12/18 10:17:35;;;;;;;44.77;32.37;;;;;;;4.12;85.70;94332.66;5053014;28;20232;-74
2023/12/18 10:20:04;;;;;;;47.03;34.20;;;;;;;4.07;85.38;94310.97;5045415;28;20460;-74
2023/12/18 10:22:31;;;;;;;50.10;35.83;;;;;;;4.11;86.48;94331.03;5039578;28;20250;-74
2023/12/18 10:24:58;;;;;;;49.37;36.47;;;;;;;4.01;86.58;94312.56;5049337;28;20179;-74
2023/12/18 10:27:24;;;;;;;54.27;35.20;;;;;;;4.08;87.37;94335.78;5047928;28;20293;-74
2023/12/18 10:29:49;;;;;;;47.33;34.47;;;;;;;4.04;88.24;94327.66;5041925;28;20197;-74
2023/12/18 10:32:15;;;;;;;59.43;37.53;;;;;;;4.11;87.02;94307.78;5048188;28;20230;-73
2023/12/18 10:34:41;;;;;;;55.63;35.80;;;;;;;4.20;87.47;94311.75;5049141;28;20324;-73
2023/12/18 10:37:08;;;;;;;58.90;37.87;;;;;;;4.07;88.63;94332.44;5036681;28;20228;-73
2023/12/18 10:39:40;;;;;;;58.53;39.97;;;;;;;4.09;89.17;94322.72;5050960;28;20258;-74
2023/12/18 10:42:13;;;;;;;63.73;41.17;;;;;;;4.21;88.45;94291.88;5044824;28;20226;-73
2023/12/18 10:44:40;;;;;;;62.20;42.60;;;;;;;4.08;89.61;94309.97;5048352;28;20221;-73
2023/12/18 10:47:06;;;;;;;70.53;42.13;;;;;;;4.26;89.52;94307.59;5057545;28;20217;-73
2023/12/18 10:49:33;;;;;;;66.73;42.03;;;;;;;4.01;90.44;94309.16;5061803;28;20190;-73
2023/12/18 10:52:00;;;;;;;71.53;45.87;;;;;;;4.24;89.97;94288.91;5068549;28;20209;-73
2023/12/18 10:54:26;;;;;;;66.63;43.33;;;;;;;4.41;88.58;94272.78;5070580;28;20189;-73
2023/12/18 10:56:52;;;;;;;68.13;45.07;;;;;;;4.52;87.32;94289.50;5060630;28;20232;-73
2023/12/18 10:59:19;;;;;;;73.23;46.23;;;;;;;4.60;86.66;94284.91;5043216;28;20185;-73
2023/12/18 11:01:45;;;;;;;76.10;45.33;;;;;;;4.74;86.10;94273.56;5050249;28;20232;-73
2023/12/18 11:04:12;;;;;;;68.50;43.97;;;;;;;4.81;84.61;94282.09;5043695;28;20251;-73
2023/12/18 11:06:39;;;;;;;74.10;45.73;;;;;;;4.58;85.88;94268.00;5049100;28;20222;-74
2023/12/18 11:09:05;;;;;;;73.77;44.60;;;;;;;4.50;88.21;94261.25;5047940;28;20186;-73
2023/12/18 11:11:32;;;;;;;75.17;47.23;;;;;;;4.35;89.48;94236.59;5048040;28;20181;-73